Time;durP1;ratioP1;P1;durP2;ratioP2;P2;SDS_P1;SDS_P2;PMS_P1;PMS_P2;Temp;Humidity;BMP_temperature;BMP_pressure;BME280_temperature;BME280_humidity;BME280_pressure;Samples;Min_cycle;Max_cycle;Signal;HPM_P1;HPM_P2
2023/12/19 00:01:08;;;;;;;7.47;5.00;;;;;;;18.65;40.45;102491.53;5070724;28;20111;-67
2023/12/19 00:03:34;;;;;;;7.82;5.22;;;;;;;18.72;40.92;102505.22;5071316;28;20040;-67
2023/12/19 00:05:59;;;;;;;9.05;5.30;;;;;;;18.61;40.77;102491.78;5071953;28;20036;-64
2023/12/19 00:08:24;;;;;;;7.15;4.75;;;;;;;18.62;40.46;102491.69;5072308;28;20034;-66
2023/12/19 00:10:50;;;;;;;7.33;5.27;;;;;;;18.59;40.42;102499.78;5073080;28;20033;-65
2023/12/19 00:13:16;;;;;;;8.15;5.10;;;;;;;18.67;40.45;102513.44;5072710;28;20265;-66
2023/12/19 00:15:41;;;;;;;6.93;4.80;;;;;;;18.57;40.53;102483.19;5073097;28;20078;-66
2023/12/19 00:18:06;;;;;;;7.50;4.75;;;;;;;18.56;40.63;102485.91;5072986;28;20059;-65
2023/12/19 00:20:32;;;;;;;7.53;4.93;;;;;;;18.63;40.50;102487.28;5073022;28;20043;-66
2023/12/19 00:22:57;;;;;;;7.40;4.60;;;;;;;18.61;40.69;102468.00;5072824;28;20389;-66
2023/12/19 00:25:26;;;;;;;7.38;4.95;;;;;;;18.52;40.49;102461.50;5072290;28;20340;-65
2023/12/19 00:27:51;;;;;;;7.45;4.80;;;;;;;18.59;40.62;102472.53;5072306;28;20043;-66
2023/12/19 00:30:16;;;;;;;6.53;4.30;;;;;;;18.59;40.64;102472.53;5071880;28;20108;-66
2023/12/19 00:32:41;;;;;;;6.90;4.93;;;;;;;18.58;40.75;102476.97;5072149;28;20036;-65
2023/12/19 00:35:08;;;;;;;7.38;4.93;;;;;;;18.53;40.48;102471.09;5071541;28;20028;-66
2023/12/19 00:37:33;;;;;;;8.00;4.90;;;;;;;18.57;40.52;102463.88;5071662;28;20473;-65
2023/12/19 00:39:59;;;;;;;7.60;4.88;;;;;;;18.54;40.53;102451.69;5071616;28;20039;-64
2023/12/19 00:42:24;;;;;;;6.45;4.47;;;;;;;18.45;40.38;102445.16;5072017;28;20024;-65
2023/12/19 00:44:49;;;;;;;6.63;4.80;;;;;;;18.53;40.79;102444.69;5071673;28;20028;-64
2023/12/19 00:47:14;;;;;;;7.60;4.80;;;;;;;18.50;40.70;102450.19;5071549;28;20301;-64
2023/12/19 00:49:40;;;;;;;7.07;4.67;;;;;;;18.51;40.43;102440.47;5072145;28;20044;-65
2023/12/19 00:52:05;;;;;;;7.75;4.90;;;;;;;18.39;40.65;102418.25;5071294;28;20269;-64
2023/12/19 00:54:30;;;;;;;8.10;5.00;;;;;;;18.46;40.30;102416.97;5071706;28;20033;-65
2023/12/19 00:56:56;;;;;;;7.32;5.13;;;;;;;18.47;40.50;102427.44;5070899;28;20028;-65
2023/12/19 00:59:21;;;;;;;6.85;4.38;;;;;;;18.46;40.49;102428.38;5071761;28;20032;-65
2023/12/19 01:01:47;;;;;;;7.80;5.55;;;;;;;18.37;40.67;102399.84;5071171;28;20094;-65
2023/12/19 01:04:12;;;;;;;7.45;5.18;;;;;;;18.42;40.55;102416.28;5071130;28;20028;-65
2023/12/19 01:06:37;;;;;;;7.80;4.70;;;;;;;18.44;40.69;102417.06;5071522;28;20082;-65
2023/12/19 01:09:04;;;;;;;8.85;5.05;;;;;;;18.36;40.49;102399.94;5071872;28;20068;-66
2023/12/19 01:11:29;;;;;;;7.45;4.95;;;;;;;18.34;40.52;102391.28;5069527;28;20085;-66
2023/12/19 01:13:55;;;;;;;7.32;5.00;;;;;;;18.42;40.69;102396.94;5068741;28;20119;-65
2023/12/19 01:16:20;;;;;;;6.13;4.40;;;;;;;18.35;40.77;102388.53;5067909;28;20032;-65
2023/12/19 01:18:45;;;;;;;7.13;4.80;;;;;;;18.37;40.61;102389.28;5067948;28;20025;-66
2023/12/19 01:21:11;;;;;;;7.60;5.00;;;;;;;18.33;40.66;102390.44;5068106;28;20040;-65
2023/12/19 01:23:36;;;;;;;8.93;5.30;;;;;;;18.34;40.43;102392.13;5068057;28;20025;-65
2023/12/19 01:26:01;;;;;;;7.22;5.20;;;;;;;18.35;40.40;102391.19;5068585;28;20040;-67
2023/12/19 01:28:27;;;;;;;9.07;5.35;;;;;;;18.36;40.55;102397.31;5068313;28;20032;-66
2023/12/19 01:30:52;;;;;;;8.10;5.03;;;;;;;18.36;40.62;102389.38;5050541;28;20477;-66
2023/12/19 01:33:17;;;;;;;8.07;4.93;;;;;;;18.28;40.67;102381.94;5068156;28;20115;-65
2023/12/19 01:35:42;;;;;;;7.97;4.90;;;;;;;18.27;40.65;102382.84;5068192;28;20440;-65
2023/12/19 01:38:09;;;;;;;6.65;4.53;;;;;;;18.21;40.59;102378.78;5069131;28;20035;-65
2023/12/19 01:40:34;;;;;;;8.68;5.32;;;;;;;18.28;40.39;102385.41;5068403;28;20115;-65
2023/12/19 01:43:00;;;;;;;6.80;4.65;;;;;;;18.21;40.79;102378.78;5067884;28;20124;-64
2023/12/19 01:45:28;;;;;;;7.50;4.60;;;;;;;18.24;40.61;102396.22;5068577;28;20116;-64
2023/12/19 01:47:53;;;;;;;7.55;5.10;;;;;;;18.26;40.62;102382.03;5053495;28;20056;-65
2023/12/19 01:50:19;;;;;;;9.18;5.15;;;;;;;18.20;40.73;102377.09;5047291;28;20524;-66
2023/12/19 01:52:49;;;;;;;7.63;5.55;;;;;;;18.20;40.53;102369.19;5047261;28;20148;-66
2023/12/19 01:55:15;;;;;;;7.40;5.00;;;;;;;18.22;40.55;102369.09;5047060;28;20401;-64
2023/12/19 01:57:41;;;;;;;8.20;4.95;;;;;;;18.25;40.56;102375.03;5046996;28;20035;-66
2023/12/19 02:00:08;;;;;;;7.25;5.03;;;;;;;18.19;40.54;102379.81;5046802;28;20603;-64
2023/12/19 02:02:34;;;;;;;7.13;4.82;;;;;;;18.20;40.79;102369.19;5044661;28;20037;-65
2023/12/19 02:04:59;;;;;;;8.18;5.10;;;;;;;18.17;40.78;102366.72;5040135;28;20040;-66
2023/12/19 02:07:25;;;;;;;7.20;4.47;;;;;;;18.23;40.74;102382.19;5046915;28;20041;-65
2023/12/19 02:09:53;;;;;;;8.80;5.25;;;;;;;18.22;40.94;102377.00;5047520;28;20477;-66
2023/12/19 02:12:19;;;;;;;8.48;5.35;;;;;;;18.12;40.64;102358.22;5048107;28;20448;-63
2023/12/19 02:14:44;;;;;;;7.82;5.15;;;;;;;18.20;40.76;102376.22;5047994;28;20115;-64
2023/12/19 02:17:12;;;;;;;7.78;4.68;;;;;;;18.19;40.81;102372.75;5047647;28;20079;-67
2023/12/19 02:19:45;;;;;;;7.93;4.82;;;;;;;18.11;40.83;102352.06;5047648;28;20431;-65
2023/12/19 02:22:10;;;;;;;7.55;5.10;;;;;;;18.20;40.69;102358.63;5047591;28;20520;-67
2023/12/19 02:24:36;;;;;;;7.28;4.80;;;;;;;18.19;41.00;102351.63;5047376;28;20021;-67
2023/12/19 02:27:01;;;;;;;7.40;4.47;;;;;;;18.16;40.90;102340.41;5047214;28;20080;-65
2023/12/19 02:29:27;;;;;;;7.32;4.55;;;;;;;18.10;40.47;102323.13;5047544;28;20032;-66
2023/12/19 02:31:52;;;;;;;7.20;4.70;;;;;;;18.09;40.88;102332.00;5047624;28;20221;-67
2023/12/19 02:34:17;;;;;;;7.72;4.63;;;;;;;18.15;40.65;102338.69;5046945;28;20040;-64
2023/12/19 02:36:42;;;;;;;7.73;5.10;;;;;;;18.16;41.01;102343.06;5047200;28;20036;-64
2023/12/19 02:39:10;;;;;;;7.70;4.50;;;;;;;18.12;40.70;102337.09;5047173;28;20278;-64
2023/12/19 02:41:35;;;;;;;6.28;4.05;;;;;;;18.10;40.83;102325.78;5047521;28;20048;-64
2023/12/19 02:44:00;;;;;;;7.13;4.50;;;;;;;18.09;40.69;102332.00;5028966;28;20032;-64
2023/12/19 02:46:25;;;;;;;7.85;4.63;;;;;;;18.04;41.08;102324.34;5046899;28;20321;-64
2023/12/19 02:48:51;;;;;;;7.80;4.80;;;;;;;18.06;40.77;102321.63;5066552;28;20067;-64
2023/12/19 02:51:20;;;;;;;7.80;4.40;;;;;;;18.06;40.80;102335.66;5066700;28;20101;-64
2023/12/19 02:53:45;;;;;;;7.13;4.78;;;;;;;18.10;40.97;102328.41;5066132;28;20032;-64
2023/12/19 02:56:11;;;;;;;6.90;4.35;;;;;;;18.14;40.90;102335.22;5066863;28;20028;-64
2023/12/19 02:58:36;;;;;;;7.15;4.20;;;;;;;18.04;40.82;102302.38;5066541;28;20028;-65
2023/12/19 03:01:01;;;;;;;6.95;4.20;;;;;;;18.02;40.78;102291.91;5065937;28;20087;-65
2023/12/19 03:03:27;;;;;;;6.28;3.90;;;;;;;18.06;40.98;102288.16;5059254;28;20101;-64
2023/12/19 03:05:52;;;;;;;6.72;4.50;;;;;;;18.11;40.94;102291.38;5057694;28;20032;-64
2023/12/19 03:08:18;;;;;;;6.03;3.75;;;;;;;18.01;40.94;102276.16;5066138;28;20066;-64
2023/12/19 03:10:43;;;;;;;7.53;4.53;;;;;;;18.04;40.96;102287.41;5063862;28;20470;-65
2023/12/19 03:13:08;;;;;;;6.37;3.90;;;;;;;18.01;40.66;102271.78;5066730;28;20036;-64
2023/12/19 03:15:34;;;;;;;6.37;3.90;;;;;;;18.03;40.87;102263.75;5065520;28;20264;-64
2023/12/19 03:17:59;;;;;;;6.32;4.20;;;;;;;18.08;41.03;102273.09;5065763;28;20296;-65
2023/12/19 03:20:24;;;;;;;6.43;4.20;;;;;;;17.99;40.83;102251.69;5066558;28;20512;-64
2023/12/19 03:22:49;;;;;;;7.07;4.03;;;;;;;18.07;40.84;102263.50;5066339;28;20124;-64
2023/12/19 03:25:15;;;;;;;5.43;3.83;;;;;;;18.08;40.90;102266.97;5066313;28;20035;-64
2023/12/19 03:27:40;;;;;;;6.15;4.15;;;;;;;17.98;40.90;102247.38;5065304;28;20041;-66
2023/12/19 03:30:06;;;;;;;6.80;3.80;;;;;;;17.99;40.83;102243.78;5065422;28;20123;-64
2023/12/19 03:32:31;;;;;;;7.13;4.00;;;;;;;17.97;40.79;102235.09;5065709;28;20025;-65
2023/12/19 03:34:57;;;;;;;6.10;3.78;;;;;;;17.97;40.85;102221.91;5065377;28;20112;-64
2023/12/19 03:37:22;;;;;;;6.15;3.97;;;;;;;18.05;40.80;102225.78;5065485;28;20507;-64
2023/12/19 03:39:47;;;;;;;6.45;3.97;;;;;;;18.05;40.79;102230.22;5065700;28;20029;-64
2023/12/19 03:42:12;;;;;;;6.50;3.80;;;;;;;17.94;40.99;102209.75;5065945;28;20054;-64
2023/12/19 03:44:41;;;;;;;6.45;4.25;;;;;;;17.95;41.13;102212.28;5065227;28;20028;-66
2023/12/19 03:47:06;;;;;;;6.00;3.55;;;;;;;17.93;41.07;102208.06;5064993;28;20075;-64
2023/12/19 03:49:32;;;;;;;6.47;4.30;;;;;;;18.01;41.09;102219.00;5065947;28;20105;-64
2023/12/19 03:51:57;;;;;;;6.77;3.93;;;;;;;17.92;40.67;102198.44;5065485;28;20024;-64
2023/12/19 03:54:24;;;;;;;6.10;3.60;;;;;;;17.95;41.10;102211.47;5065997;28;20344;-65
2023/12/19 03:56:49;;;;;;;5.45;3.78;;;;;;;17.92;40.95;102207.19;5066089;28;20025;-65
2023/12/19 03:59:15;;;;;;;5.30;3.70;;;;;;;17.99;41.04;102207.72;5066516;28;20086;-65
2023/12/19 04:01:44;;;;;;;5.80;3.65;;;;;;;17.90;41.10;102192.41;5065867;28;20039;-64
2023/12/19 04:04:11;;;;;;;5.75;3.97;;;;;;;17.98;41.08;102203.38;5059591;28;20039;-64
2023/12/19 04:06:40;;;;;;;6.28;3.95;;;;;;;17.97;41.04;102200.81;5065181;28;20033;-64
2023/12/19 04:09:06;;;;;;;5.72;3.83;;;;;;;17.97;40.93;102198.19;5066741;28;20059;-65
2023/12/19 04:11:31;;;;;;;6.30;3.83;;;;;;;17.88;41.09;102181.97;5065706;28;20464;-65
2023/12/19 04:13:56;;;;;;;5.93;4.43;;;;;;;17.98;40.89;102191.97;5064892;28;20115;-66
2023/12/19 04:16:21;;;;;;;6.10;3.90;;;;;;;17.96;40.93;102199.97;5065010;28;20034;-65
2023/12/19 04:18:47;;;;;;;7.35;4.30;;;;;;;17.89;41.14;102180.16;5065359;28;20265;-65
2023/12/19 04:21:12;;;;;;;6.57;4.50;;;;;;;17.95;41.08;102198.25;5065476;28;20032;-65
2023/12/19 04:23:37;;;;;;;7.50;4.33;;;;;;;17.86;41.30;102170.59;5065310;28;20024;-66
2023/12/19 04:26:02;;;;;;;6.97;4.75;;;;;;;17.85;41.27;102163.66;5065600;28;20265;-65
2023/12/19 04:28:28;;;;;;;8.65;4.82;;;;;;;17.84;41.00;102153.19;5065947;28;20028;-65
2023/12/19 04:30:53;;;;;;;6.95;4.22;;;;;;;17.93;41.09;102165.88;5065714;28;20028;-65
2023/12/19 04:33:18;;;;;;;7.95;4.57;;;;;;;17.90;41.22;102152.88;5066060;28;20115;-66
2023/12/19 04:35:44;;;;;;;6.97;4.40;;;;;;;17.92;41.33;102150.97;5066030;28;20032;-67
2023/12/19 04:38:09;;;;;;;7.90;4.80;;;;;;;17.82;40.92;102136.63;5065576;28;20272;-66
2023/12/19 04:40:34;;;;;;;7.57;4.43;;;;;;;17.92;41.13;102148.34;5065612;28;20270;-65
2023/12/19 04:42:59;;;;;;;6.90;4.50;;;;;;;17.83;41.31;102119.84;5065656;28;20681;-66
2023/12/19 04:45:25;;;;;;;6.35;4.15;;;;;;;17.90;41.46;102131.75;5065827;28;20272;-64
2023/12/19 04:47:50;;;;;;;6.65;3.85;;;;;;;17.90;41.39;102126.50;5067658;28;20057;-66
2023/12/19 04:50:15;;;;;;;6.80;4.28;;;;;;;17.81;41.41;102096.19;5068986;28;20060;-65
2023/12/19 04:52:40;;;;;;;7.30;4.82;;;;;;;17.82;41.46;102104.97;5068994;28;20721;-65
2023/12/19 04:55:06;;;;;;;6.63;4.77;;;;;;;17.77;41.40;102098.19;5069310;28;20039;-65
2023/12/19 04:57:31;;;;;;;7.45;4.50;;;;;;;17.80;41.39;102105.06;5069095;28;20355;-64
2023/12/19 04:59:56;;;;;;;6.55;4.40;;;;;;;17.86;41.39;102103.84;5069141;28;20039;-65
2023/12/19 05:02:23;;;;;;;7.43;4.80;;;;;;;17.81;40.92;102101.47;5067918;28;20032;-65
2023/12/19 05:04:48;;;;;;;8.75;4.60;;;;;;;17.77;41.52;102089.44;5063696;28;20265;-65
2023/12/19 05:07:13;;;;;;;6.80;4.20;;;;;;;17.86;41.17;102107.31;5068713;28;20162;-66
2023/12/19 05:09:38;;;;;;;7.00;4.57;;;;;;;17.77;41.37;102099.97;5069185;28;20253;-64
2023/12/19 05:12:04;;;;;;;7.38;4.57;;;;;;;17.84;41.44;102101.28;5069088;28;20606;-64
2023/12/19 05:14:29;;;;;;;6.57;4.28;;;;;;;17.75;41.53;102092.16;5068678;28;20028;-64
2023/12/19 05:16:55;;;;;;;7.88;4.20;;;;;;;17.78;41.30;102104.28;5067982;28;20028;-64
2023/12/19 05:19:20;;;;;;;8.18;4.57;;;;;;;17.83;41.69;102114.56;5068783;28;20098;-64
2023/12/19 05:21:45;;;;;;;6.35;4.40;;;;;;;17.76;41.37;102103.53;5068415;28;20036;-65
2023/12/19 05:24:11;;;;;;;7.82;4.57;;;;;;;17.75;41.43;102110.63;5068679;28;20040;-64
2023/12/19 05:26:36;;;;;;;8.82;4.68;;;;;;;17.73;41.44;102090.53;5068309;28;20024;-64
2023/12/19 05:29:01;;;;;;;5.93;4.10;;;;;;;17.83;41.67;102111.94;5069100;28;20060;-64
2023/12/19 05:31:26;;;;;;;7.00;4.65;;;;;;;17.79;41.43;102113.06;5068712;28;21077;-64
2023/12/19 05:33:52;;;;;;;6.93;4.10;;;;;;;17.80;41.61;102096.28;5068655;28;20115;-64
2023/12/19 05:36:17;;;;;;;7.45;4.55;;;;;;;17.80;41.77;102098.91;5068012;28;20508;-65
2023/12/19 05:38:43;;;;;;;7.25;4.80;;;;;;;17.77;41.70;102087.63;5062104;28;20367;-66
2023/12/19 05:41:14;;;;;;;7.72;4.50;;;;;;;17.72;41.73;102078.28;5067805;28;20032;-64
2023/12/19 05:43:39;;;;;;;6.40;4.10;;;;;;;17.71;41.63;102087.16;5066775;28;20063;-66
2023/12/19 05:46:05;;;;;;;8.32;4.68;;;;;;;17.78;41.38;102099.00;5066576;28;20040;-65
2023/12/19 05:48:30;;;;;;;7.25;4.65;;;;;;;17.72;41.40;102068.59;5064434;28;20056;-65
2023/12/19 05:50:56;;;;;;;7.32;4.07;;;;;;;17.74;41.42;102069.34;5067728;28;20143;-65
2023/12/19 05:53:22;;;;;;;6.70;4.47;;;;;;;17.68;41.71;102053.91;5068253;28;20116;-65
2023/12/19 05:55:47;;;;;;;6.47;4.18;;;;;;;17.70;41.58;102057.28;5068561;28;20036;-65
2023/12/19 05:58:13;;;;;;;5.70;3.60;;;;;;;17.81;42.04;102058.44;5067689;28;20475;-64
2023/12/19 06:00:38;;;;;;;5.18;3.17;;;;;;;17.73;41.87;102049.19;5067867;28;20060;-64
2023/12/19 06:03:04;;;;;;;6.45;3.15;;;;;;;17.76;41.93;102046.38;5064845;28;20039;-65
2023/12/19 06:05:29;;;;;;;5.13;2.58;;;;;;;17.89;41.70;102070.22;5064964;28;20027;-63
2023/12/19 06:07:54;;;;;;;6.00;2.72;;;;;;;17.90;42.17;102061.38;5067158;28;20514;-64
2023/12/19 06:10:20;;;;;;;5.20;2.67;;;;;;;17.91;41.97;102044.63;5065800;28;20056;-64
2023/12/19 06:12:46;;;;;;;4.63;2.25;;;;;;;17.99;42.38;102045.94;5067746;28;20033;-65
2023/12/19 06:15:14;;;;;;;5.47;2.60;;;;;;;18.03;42.10;102045.66;5066314;28;20050;-64
2023/12/19 06:17:41;;;;;;;4.72;2.58;;;;;;;18.08;42.25;102050.66;5067045;28;20112;-64
2023/12/19 06:20:10;;;;;;;4.32;2.35;;;;;;;18.01;42.29;102033.50;5067493;28;20032;-65
2023/12/19 06:22:37;;;;;;;4.47;2.05;;;;;;;18.07;42.04;102041.03;5066976;28;20124;-64
2023/12/19 06:25:03;;;;;;;4.63;2.42;;;;;;;18.08;42.15;102032.19;5067931;28;20087;-66
2023/12/19 06:27:28;;;;;;;4.70;2.85;;;;;;;18.18;41.92;102051.75;5064831;28;20051;-66
2023/12/19 06:29:56;;;;;;;4.70;2.25;;;;;;;18.15;41.75;102030.88;5068125;28;20044;-67
2023/12/19 06:32:21;;;;;;;4.72;2.55;;;;;;;18.20;42.04;102039.34;5067018;28;20029;-65
2023/12/19 06:34:47;;;;;;;4.28;2.20;;;;;;;18.23;42.07;102043.56;5066695;28;20035;-66
2023/12/19 06:37:12;;;;;;;4.50;2.10;;;;;;;18.19;42.13;102031.53;5066248;28;20024;-64
2023/12/19 06:39:37;;;;;;;4.55;2.10;;;;;;;18.24;42.10;102030.28;5067468;28;20036;-66
2023/12/19 06:42:03;;;;;;;4.15;1.95;;;;;;;18.31;42.16;102034.22;5064945;28;20128;-64
2023/12/19 06:44:28;;;;;;;4.05;2.25;;;;;;;18.25;41.90;102026.69;5065284;28;20020;-65
2023/12/19 06:46:54;;;;;;;4.78;2.65;;;;;;;18.24;41.81;102019.72;5065987;28;20135;-66
2023/12/19 06:49:20;;;;;;;5.30;2.53;;;;;;;18.23;41.80;102010.13;5064806;28;20051;-66
2023/12/19 06:51:45;;;;;;;3.53;1.90;;;;;;;18.31;41.85;102041.31;5066586;28;20107;-66
2023/12/19 06:54:11;;;;;;;3.15;1.65;;;;;;;18.37;42.30;102051.44;5064941;28;20408;-64
2023/12/19 06:56:36;;;;;;;3.97;2.00;;;;;;;18.32;41.76;102035.06;5065989;28;20033;-65
2023/12/19 06:59:02;;;;;;;4.10;2.17;;;;;;;18.39;41.80;102035.53;5060006;28;20043;-65
2023/12/19 07:01:27;;;;;;;4.30;2.47;;;;;;;18.37;41.94;102029.50;5066999;28;20032;-65
2023/12/19 07:03:53;;;;;;;3.90;2.10;;;;;;;18.37;41.74;102029.50;5064977;28;20385;-65
2023/12/19 07:06:18;;;;;;;5.07;2.38;;;;;;;18.31;41.66;102009.63;5062018;28;20036;-65
2023/12/19 07:08:44;;;;;;;4.30;2.08;;;;;;;18.37;41.93;102022.41;5066648;28;20048;-66
2023/12/19 07:11:09;;;;;;;3.90;2.20;;;;;;;18.40;41.98;102014.31;5065683;28;20033;-65
2023/12/19 07:13:35;;;;;;;3.80;1.83;;;;;;;18.41;42.06;102023.94;5065828;28;20032;-66
2023/12/19 07:16:02;;;;;;;4.43;2.20;;;;;;;18.41;41.72;102023.09;5066054;28;20029;-66
2023/12/19 07:18:28;;;;;;;4.25;2.20;;;;;;;18.37;41.67;102025.06;5065847;28;20040;-66
2023/12/19 07:20:53;;;;;;;4.03;1.90;;;;;;;18.43;41.85;102024.66;5065817;28;20218;-66
2023/12/19 07:23:18;;;;;;;3.53;1.90;;;;;;;18.43;41.95;102016.75;5065702;28;20032;-67
2023/12/19 07:25:44;;;;;;;3.70;1.70;;;;;;;18.40;41.83;102009.03;5065475;28;20032;-65
2023/12/19 07:28:09;;;;;;;4.22;2.00;;;;;;;18.43;41.95;102008.84;5066136;28;20285;-65
2023/12/19 07:30:35;;;;;;;3.92;2.17;;;;;;;18.37;41.60;101996.03;5066052;28;20037;-66
2023/12/19 07:33:00;;;;;;;4.47;2.00;;;;;;;18.37;41.92;101982.84;5066568;28;20475;-67
2023/12/19 07:35:25;;;;;;;4.05;1.90;;;;;;;18.40;41.89;101989.72;5066346;28;20123;-66
2023/12/19 07:37:51;;;;;;;3.65;2.00;;;;;;;18.42;41.76;102001.88;5066279;28;20115;-66
2023/12/19 07:40:16;;;;;;;4.07;2.15;;;;;;;18.39;41.82;101995.94;5066147;28;20123;-66
2023/12/19 07:42:42;;;;;;;5.00;2.30;;;;;;;18.42;41.96;102011.56;5065576;28;20032;-66
2023/12/19 07:45:07;;;;;;;3.53;1.85;;;;;;;18.44;42.02;102010.53;5065812;28;20033;-66
2023/12/19 07:47:33;;;;;;;4.95;1.95;;;;;;;18.43;41.96;102016.75;5064951;28;20048;-65
2023/12/19 07:49:58;;;;;;;4.00;2.10;;;;;;;18.34;41.96;101995.38;5065455;28;20043;-65
2023/12/19 07:52:24;;;;;;;3.72;1.90;;;;;;;18.34;41.87;101990.97;5065775;28;20036;-65
2023/12/19 07:54:49;;;;;;;5.55;1.80;;;;;;;18.44;41.81;101999.13;5059017;28;20033;-65
2023/12/19 07:57:15;;;;;;;4.40;2.00;;;;;;;18.37;41.75;101982.00;5065548;28;20708;-68
2023/12/19 07:59:40;;;;;;;5.30;2.05;;;;;;;18.35;41.76;101976.81;5064543;28;20116;-65
2023/12/19 08:02:06;;;;;;;4.20;2.00;;;;;;;18.44;41.82;101991.22;5064536;28;20495;-65
2023/12/19 08:04:31;;;;;;;3.50;1.83;;;;;;;18.43;41.87;101993.00;5065054;28;20028;-67
2023/12/19 08:06:57;;;;;;;3.58;1.85;;;;;;;18.45;41.92;101987.63;5065547;28;20475;-67
2023/12/19 08:09:22;;;;;;;3.63;1.85;;;;;;;18.32;41.94;101958.53;5065895;28;20047;-67
2023/12/19 08:11:48;;;;;;;4.32;2.10;;;;;;;18.45;41.85;101983.22;5065937;28;20044;-67
2023/12/19 08:14:13;;;;;;;4.55;2.30;;;;;;;18.38;41.81;101966.06;5065422;28;20035;-67
2023/12/19 08:16:38;;;;;;;5.30;2.30;;;;;;;18.47;41.86;101988.38;5065107;28;20147;-66
2023/12/19 08:19:03;;;;;;;4.05;2.00;;;;;;;18.47;42.00;101988.38;5065137;28;20489;-65
2023/12/19 08:21:30;;;;;;;5.45;2.40;;;;;;;18.46;42.06;101986.69;5066324;28;20040;-66
2023/12/19 08:23:56;;;;;;;5.88;2.17;;;;;;;18.44;42.29;101980.66;5069068;28;20484;-66
2023/12/19 08:26:21;;;;;;;4.43;2.42;;;;;;;18.46;42.25;101978.75;5050441;28;20110;-67
2023/12/19 08:28:47;;;;;;;5.40;1.90;;;;;;;18.37;42.35;101961.72;5069263;28;20036;-65
2023/12/19 08:31:12;;;;;;;4.57;2.13;;;;;;;18.36;42.33;101959.19;5069800;28;20033;-65
2023/12/19 08:33:41;;;;;;;3.60;1.83;;;;;;;18.45;42.58;101967.38;5069188;28;20031;-67
2023/12/19 08:36:06;;;;;;;3.95;2.03;;;;;;;18.48;42.43;101983.00;5069705;28;20123;-67
2023/12/19 08:38:32;;;;;;;4.05;2.10;;;;;;;18.39;42.61;101970.41;5069037;28;20179;-66
2023/12/19 08:40:57;;;;;;;4.13;1.80;;;;;;;18.38;42.69;101973.97;5069598;28;20039;-66
2023/12/19 08:43:23;;;;;;;5.55;2.13;;;;;;;18.41;42.94;101967.66;5069363;28;20032;-66
2023/12/19 08:45:49;;;;;;;4.30;2.00;;;;;;;18.47;43.02;101968.09;5069667;28;20025;-68
2023/12/19 08:48:14;;;;;;;4.90;2.10;;;;;;;18.47;42.83;101962.00;5068358;28;20048;-67
2023/12/19 08:50:39;;;;;;;4.05;2.00;;;;;;;18.48;43.13;101974.22;5069210;28;20021;-67
2023/12/19 08:53:05;;;;;;;6.25;2.45;;;;;;;18.48;43.15;101968.94;5068963;28;20028;-65
2023/12/19 08:55:30;;;;;;;4.47;1.90;;;;;;;18.48;43.45;101972.44;5069303;28;20078;-65
2023/12/19 08:57:55;;;;;;;5.78;2.00;;;;;;;18.44;42.98;101959.56;5069016;28;20457;-66
2023/12/19 09:00:22;;;;;;;5.32;2.03;;;;;;;18.48;43.40;101958.38;5068579;28;20035;-67
2023/12/19 09:02:48;;;;;;;3.80;1.92;;;;;;;18.45;43.51;101951.53;5067830;28;20025;-65
2023/12/19 09:05:18;;;;;;;4.20;1.95;;;;;;;18.50;43.84;101961.78;5068348;28;20659;-67
2023/12/19 09:07:46;;;;;;;5.32;2.33;;;;;;;18.40;43.59;101942.22;5068189;28;20032;-65
2023/12/19 09:10:12;;;;;;;4.40;2.00;;;;;;;18.44;43.80;101952.47;5068297;28;20024;-66
2023/12/19 09:12:38;;;;;;;4.55;1.88;;;;;;;18.51;44.04;101962.63;5068633;28;20027;-67
2023/12/19 09:15:05;;;;;;;3.83;2.10;;;;;;;18.41;43.82;101938.63;5068893;28;20159;-66
2023/12/19 09:17:31;;;;;;;3.95;1.80;;;;;;;18.44;43.98;101941.06;5069037;28;20028;-64
2023/12/19 09:19:56;;;;;;;4.65;1.90;;;;;;;18.42;44.25;101941.16;5069018;28;20487;-65
2023/12/19 09:22:22;;;;;;;3.42;1.60;;;;;;;18.44;43.98;101939.28;5067352;28;20052;-66
2023/12/19 09:24:48;;;;;;;4.25;2.22;;;;;;;18.44;44.13;101925.25;5067964;28;20111;-68
2023/12/19 09:27:13;;;;;;;4.35;2.20;;;;;;;18.48;44.21;101937.28;5067571;28;20135;-68
2023/12/19 09:29:40;;;;;;;4.88;2.08;;;;;;;18.53;44.06;101935.16;5068516;28;20107;-67
2023/12/19 09:32:07;;;;;;;4.20;2.20;;;;;;;18.46;44.21;101931.25;5067678;28;20032;-69
2023/12/19 09:34:33;;;;;;;4.68;2.35;;;;;;;18.46;44.31;101924.16;5067619;28;20116;-69
2023/12/19 09:36:59;;;;;;;4.05;2.08;;;;;;;18.48;44.09;101913.50;5068040;28;20115;-68
2023/12/19 09:39:24;;;;;;;4.10;1.88;;;;;;;18.56;44.15;101937.59;5067595;28;20120;-65
2023/12/19 09:41:50;;;;;;;4.15;1.90;;;;;;;18.48;43.99;101922.28;5068098;28;20032;-69
2023/12/19 09:44:15;;;;;;;5.47;2.10;;;;;;;18.58;44.08;101926.94;5066250;28;20081;-67
2023/12/19 09:46:42;;;;;;;4.40;2.13;;;;;;;18.59;44.31;101928.66;5067055;28;20059;-69
2023/12/19 09:49:10;;;;;;;4.93;2.10;;;;;;;18.49;44.18;101905.50;5066750;28;20036;-67
2023/12/19 09:51:42;;;;;;;3.80;1.75;;;;;;;18.59;44.15;101918.91;5048805;28;20038;-67
2023/12/19 09:54:07;;;;;;;4.47;1.92;;;;;;;18.57;44.25;101899.72;5067043;28;20111;-67
2023/12/19 09:56:32;;;;;;;3.80;1.80;;;;;;;18.61;44.36;101909.13;5066847;28;20119;-66
2023/12/19 09:59:00;;;;;;;4.13;1.75;;;;;;;18.63;44.25;101906.38;5067665;28;20028;-64
2023/12/19 10:01:25;;;;;;;4.60;1.88;;;;;;;18.55;43.87;101885.78;5063722;28;20025;-66
2023/12/19 10:03:55;;;;;;;3.70;1.80;;;;;;;18.65;44.17;101902.69;5060893;28;20108;-66
2023/12/19 10:06:20;;;;;;;4.15;1.92;;;;;;;18.66;44.13;101898.25;5067650;28;20048;-65
2023/12/19 10:08:47;;;;;;;3.60;1.85;;;;;;;18.63;43.99;101885.28;5067760;28;20083;-66
2023/12/19 10:11:24;;;;;;;3.22;1.52;;;;;;;18.68;44.15;101896.34;5068047;28;20039;-66
2023/12/19 10:13:50;;;;;;;3.63;1.67;;;;;;;18.67;44.11;101890.25;5067023;28;20036;-65
2023/12/19 10:16:19;;;;;;;4.22;1.85;;;;;;;18.64;44.30;101889.56;5067559;28;20033;-67
2023/12/19 10:18:53;;;;;;;4.07;1.70;;;;;;;18.61;44.32;101876.59;5066549;28;20119;-67
2023/12/19 10:21:21;;;;;;;3.65;1.58;;;;;;;18.70;44.18;101883.06;5067328;28;20082;-67
2023/12/19 10:23:47;;;;;;;3.92;1.60;;;;;;;18.69;44.16;101879.53;5056819;28;20040;-67
2023/12/19 10:26:12;;;;;;;5.18;2.08;;;;;;;18.65;44.19;101876.28;5066595;28;20487;-66
2023/12/19 10:28:38;;;;;;;4.00;1.70;;;;;;;18.74;44.25;101876.59;5066322;28;20040;-66
2023/12/19 10:31:06;;;;;;;4.13;1.50;;;;;;;18.74;44.18;101871.31;5064438;28;20040;-66
2023/12/19 10:33:42;;;;;;;3.05;1.50;;;;;;;18.63;44.29;101856.22;5064698;28;20037;-68
2023/12/19 10:36:07;;;;;;;3.88;2.03;;;;;;;18.64;44.16;101840.28;5059544;28;20658;-68
2023/12/19 10:38:46;;;;;;;3.50;1.50;;;;;;;18.75;44.10;101847.44;5066449;28;20151;-67
2023/12/19 10:41:26;;;;;;;3.08;1.60;;;;;;;18.65;44.12;101825.28;5065601;28;20036;-67
2023/12/19 10:43:55;;;;;;;3.20;1.48;;;;;;;18.75;44.51;101839.53;5066169;28;20078;-68
2023/12/19 10:46:24;;;;;;;4.28;1.60;;;;;;;18.74;44.47;101834.34;5067165;28;20032;-66
2023/12/19 10:48:54;;;;;;;3.67;1.75;;;;;;;18.64;44.30;101821.81;5066304;28;20048;-68
2023/12/19 10:51:33;;;;;;;3.28;1.60;;;;;;;18.74;44.34;101840.50;5066721;28;20031;-65
2023/12/19 10:54:09;;;;;;;4.10;1.70;;;;;;;18.75;44.28;101831.59;5066495;28;20033;-68
2023/12/19 10:57:00;;;;;;;3.70;1.40;;;;;;;18.74;44.28;101806.16;5066133;28;20048;-66
2023/12/19 10:59:31;;;;;;;4.10;1.50;;;;;;;18.75;44.38;101801.72;5064999;28;20036;-65
2023/12/19 11:02:02;;;;;;;3.63;1.70;;;;;;;18.74;44.28;101795.59;5063337;28;20028;-65
2023/12/19 11:04:32;;;;;;;3.15;1.67;;;;;;;18.75;44.07;101791.16;5058051;28;20028;-66
2023/12/19 11:07:02;;;;;;;3.70;1.58;;;;;;;18.61;44.30;101756.00;5053184;28;20048;-66
2023/12/19 11:09:34;;;;;;;5.15;1.73;;;;;;;18.71;44.16;101772.06;5061164;28;20063;-64
2023/12/19 11:11:59;;;;;;;2.75;1.50;;;;;;;18.64;44.19;101755.78;5064214;28;20036;-63
2023/12/19 11:14:26;;;;;;;3.42;1.35;;;;;;;18.73;44.09;101766.66;5065929;28;20048;-64
2023/12/19 11:16:59;;;;;;;2.95;1.52;;;;;;;18.62;44.06;101746.28;5063876;28;20158;-66
2023/12/19 11:19:30;;;;;;;2.78;1.30;;;;;;;18.71;44.04;101755.34;5065289;28;20916;-66